sensor_id;sensor_type;location;lat;lon;timestamp;pressure;altitude;pressure_sealevel;temperature;humidity
22649;BME280;11491;41.942;24.220;2023-03-25T00:01:42;89708.41;;;3.96;76.08
22649;BME280;11491;41.942;24.220;2023-03-25T00:04:09;89703.25;;;3.91;76.09
22649;BME280;11491;41.942;24.220;2023-03-25T00:06:36;89703.75;;;3.93;75.91
22649;BME280;11491;41.942;24.220;2023-03-25T00:09:04;89703.06;;;3.79;76.43
22649;BME280;11491;41.942;24.220;2023-03-25T00:11:31;89703.25;;;3.91;75.78
22649;BME280;11491;41.942;24.220;2023-03-25T00:13:58;89699.84;;;3.99;74.72
22649;BME280;11491;41.942;24.220;2023-03-25T00:16:25;89686.66;;;3.59;76.36
22649;BME280;11491;41.942;24.220;2023-03-25T00:18:52;89701.38;;;3.83;76.53
22649;BME280;11491;41.942;24.220;2023-03-25T00:21:18;89700.56;;;3.82;76.29
22649;BME280;11491;41.942;24.220;2023-03-25T00:23:45;89695.47;;;3.86;76.52
22649;BME280;11491;41.942;24.220;2023-03-25T00:26:13;89684.84;;;3.69;76.27
22649;BME280;11491;41.942;24.220;2023-03-25T00:28:40;89684.84;;;3.69;76.08
22649;BME280;11491;41.942;24.220;2023-03-25T00:31:10;89686.38;;;3.70;76.16
22649;BME280;11491;41.942;24.220;2023-03-25T00:33:37;89685.91;;;3.67;76.59
22649;BME280;11491;41.942;24.220;2023-03-25T00:36:06;89676.72;;;3.56;76.49
22649;BME280;11491;41.942;24.220;2023-03-25T00:38:34;89671.09;;;3.49;76.56
22649;BME280;11491;41.942;24.220;2023-03-25T00:41:09;89669.41;;;3.53;77.16
22649;BME280;11491;41.942;24.220;2023-03-25T00:43:37;89668.00;;;3.56;76.95
22649;BME280;11491;41.942;24.220;2023-03-25T00:46:05;89668.97;;;3.69;76.21
22649;BME280;11491;41.942;24.220;2023-03-25T00:48:32;89661.81;;;3.69;75.97
22649;BME280;11491;41.942;24.220;2023-03-25T00:50:58;89666.28;;;3.60;76.68
22649;BME280;11491;41.942;24.220;2023-03-25T00:53:31;89664.84;;;3.45;77.52
22649;BME280;11491;41.942;24.220;2023-03-25T00:55:58;89660.59;;;3.35;78.18
22649;BME280;11491;41.942;24.220;2023-03-25T00:58:25;89659.03;;;3.26;77.92
22649;BME280;11491;41.942;24.220;2023-03-25T01:00:53;89656.72;;;3.33;78.17
22649;BME280;11491;41.942;24.220;2023-03-25T01:03:21;89654.88;;;3.42;77.85
22649;BME280;11491;41.942;24.220;2023-03-25T01:05:48;89659.69;;;3.40;77.75
22649;BME280;11491;41.942;24.220;2023-03-25T01:08:15;89655.16;;;3.32;78.37
22649;BME280;11491;41.942;24.220;2023-03-25T01:10:42;89648.78;;;3.24;79.08
22649;BME280;11491;41.942;24.220;2023-03-25T01:13:09;89655.50;;;3.39;78.64
22649;BME280;11491;41.942;24.220;2023-03-25T01:15:38;89650.09;;;3.44;78.04
22649;BME280;11491;41.942;24.220;2023-03-25T01:18:06;89650.84;;;3.36;78.70
22649;BME280;11491;41.942;24.220;2023-03-25T01:20:33;89650.03;;;3.27;79.12
22649;BME280;11491;41.942;24.220;2023-03-25T01:23:00;89647.75;;;3.42;77.83
22649;BME280;11491;41.942;24.220;2023-03-25T01:25:27;89643.38;;;3.38;77.35
22649;BME280;11491;41.942;24.220;2023-03-25T01:27:53;89641.41;;;3.12;79.06
22649;BME280;11491;41.942;24.220;2023-03-25T01:30:20;89635.25;;;3.26;78.40
22649;BME280;11491;41.942;24.220;2023-03-25T01:32:47;89620.00;;;3.22;79.33
22649;BME280;11491;41.942;24.220;2023-03-25T01:35:15;89625.63;;;3.30;78.96
22649;BME280;11491;41.942;24.220;2023-03-25T01:37:42;89622.78;;;3.17;79.75
22649;BME280;11491;41.942;24.220;2023-03-25T01:40:16;89621.56;;;3.23;78.85
22649;BME280;11491;41.942;24.220;2023-03-25T01:42:44;89619.09;;;3.27;78.65
22649;BME280;11491;41.942;24.220;2023-03-25T01:45:18;89611.50;;;3.34;78.28
22649;BME280;11491;41.942;24.220;2023-03-25T01:47:47;89605.78;;;3.41;77.82
22649;BME280;11491;41.942;24.220;2023-03-25T01:50:16;89601.97;;;3.24;77.66
22649;BME280;11491;41.942;24.220;2023-03-25T01:52:46;89605.09;;;3.27;77.79
22649;BME280;11491;41.942;24.220;2023-03-25T01:55:15;89589.47;;;2.99;78.85
22649;BME280;11491;41.942;24.220;2023-03-25T01:57:44;89600.03;;;2.99;79.45
22649;BME280;11491;41.942;24.220;2023-03-25T02:00:14;89604.69;;;2.93;80.15
22649;BME280;11491;41.942;24.220;2023-03-25T02:02:42;89599.84;;;2.95;80.37
22649;BME280;11491;41.942;24.220;2023-03-25T02:05:16;89585.88;;;2.95;80.71
22649;BME280;11491;41.942;24.220;2023-03-25T02:07:47;89588.50;;;2.95;81.08
22649;BME280;11491;41.942;24.220;2023-03-25T02:10:15;89594.25;;;2.97;80.58
22649;BME280;11491;41.942;24.220;2023-03-25T02:12:42;89586.63;;;2.95;81.01
22649;BME280;11491;41.942;24.220;2023-03-25T02:15:11;89578.91;;;2.99;80.47
22649;BME280;11491;41.942;24.220;2023-03-25T02:17:50;89586.06;;;3.07;80.09
22649;BME280;11491;41.942;24.220;2023-03-25T02:23:42;89586.06;;;3.07;79.76
22649;BME280;11491;41.942;24.220;2023-03-25T02:29:28;89584.34;;;3.02;79.41
22649;BME280;11491;41.942;24.220;2023-03-25T02:32:13;89574.44;;;3.08;79.67
22649;BME280;11491;41.942;24.220;2023-03-25T02:34:59;89583.91;;;3.09;78.99
22649;BME280;11491;41.942;24.220;2023-03-25T02:40:44;89574.75;;;2.75;80.28
22649;BME280;11491;41.942;24.220;2023-03-25T02:43:17;89585.53;;;2.88;80.52
22649;BME280;11491;41.942;24.220;2023-03-25T02:45:48;89583.69;;;2.88;80.70
22649;BME280;11491;41.942;24.220;2023-03-25T02:48:20;89577.00;;;2.91;79.97
22649;BME280;11491;41.942;24.220;2023-03-25T02:50:50;89567.03;;;2.88;80.66
22649;BME280;11491;41.942;24.220;2023-03-25T02:53:23;89575.31;;;2.95;79.85
22649;BME280;11491;41.942;24.220;2023-03-25T02:55:54;89570.78;;;2.87;79.95
22649;BME280;11491;41.942;24.220;2023-03-25T02:58:24;89565.84;;;2.94;79.76
22649;BME280;11491;41.942;24.220;2023-03-25T03:00:52;89559.94;;;2.97;79.23
22649;BME280;11491;41.942;24.220;2023-03-25T03:03:23;89562.56;;;2.97;80.02
22649;BME280;11491;41.942;24.220;2023-03-25T03:05:52;89559.19;;;3.05;79.21
22649;BME280;11491;41.942;24.220;2023-03-25T03:08:53;89554.66;;;2.97;79.37
22649;BME280;11491;41.942;24.220;2023-03-25T03:11:25;89553.50;;;2.80;80.14
22649;BME280;11491;41.942;24.220;2023-03-25T03:14:10;89551.81;;;2.85;79.81
22649;BME280;11491;41.942;24.220;2023-03-25T03:16:46;89550.53;;;2.73;80.48
22649;BME280;11491;41.942;24.220;2023-03-25T03:19:24;89552.72;;;2.80;80.30
22649;BME280;11491;41.942;24.220;2023-03-25T03:21:58;89551.00;;;2.75;81.22
22649;BME280;11491;41.942;24.220;2023-03-25T03:24:30;89543.41;;;2.83;80.75
22649;BME280;11491;41.942;24.220;2023-03-25T03:27:03;89553.69;;;2.93;79.18
22649;BME280;11491;41.942;24.220;2023-03-25T03:29:36;89548.25;;;2.89;79.19
22649;BME280;11491;41.942;24.220;2023-03-25T03:32:09;89532.84;;;2.83;79.00
22649;BME280;11491;41.942;24.220;2023-03-25T03:34:42;89529.28;;;2.87;78.86
22649;BME280;11491;41.942;24.220;2023-03-25T03:37:13;89545.03;;;3.01;78.42
22649;BME280;11491;41.942;24.220;2023-03-25T03:39:45;89540.97;;;2.95;78.22
22649;BME280;11491;41.942;24.220;2023-03-25T03:42:16;89545.41;;;2.77;79.03
22649;BME280;11491;41.942;24.220;2023-03-25T03:44:48;89545.38;;;2.68;79.02
22649;BME280;11491;41.942;24.220;2023-03-25T03:47:18;89537.13;;;2.61;79.83
22649;BME280;11491;41.942;24.220;2023-03-25T03:49:50;89538.06;;;2.65;81.17
22649;BME280;11491;41.942;24.220;2023-03-25T03:52:21;89536.09;;;2.79;80.18
22649;BME280;11491;41.942;24.220;2023-03-25T03:54:54;89550.69;;;2.77;79.90
22649;BME280;11491;41.942;24.220;2023-03-25T03:57:25;89532.91;;;2.60;80.45
22649;BME280;11491;41.942;24.220;2023-03-25T03:59:57;89527.16;;;2.58;81.38
22649;BME280;11491;41.942;24.220;2023-03-25T04:02:36;89526.81;;;2.51;81.32
22649;BME280;11491;41.942;24.220;2023-03-25T04:05:05;89522.50;;;2.55;81.01
22649;BME280;11491;41.942;24.220;2023-03-25T04:07:37;89528.28;;;2.66;80.58
22649;BME280;11491;41.942;24.220;2023-03-25T04:10:11;89529.94;;;2.53;80.94
22649;BME280;11491;41.942;24.220;2023-03-25T04:12:42;89532.88;;;2.51;81.02
22649;BME280;11491;41.942;24.220;2023-03-25T04:15:11;89526.03;;;2.50;81.46
22649;BME280;11491;41.942;24.220;2023-03-25T04:17:38;89536.50;;;2.64;80.31
22649;BME280;11491;41.942;24.220;2023-03-25T04:20:06;89527.47;;;2.56;80.29
22649;BME280;11491;41.942;24.220;2023-03-25T04:22:36;89536.66;;;2.59;80.57
22649;BME280;11491;41.942;24.220;2023-03-25T04:25:04;89536.84;;;2.71;79.55
22649;BME280;11491;41.942;24.220;2023-03-25T04:27:32;89528.72;;;2.59;79.31
22649;BME280;11491;41.942;24.220;2023-03-25T04:30:05;89540.13;;;2.77;78.91
22649;BME280;11491;41.942;24.220;2023-03-25T04:32:33;89530.88;;;2.57;79.35
22649;BME280;11491;41.942;24.220;2023-03-25T04:35:00;89542.28;;;2.66;80.27
22649;BME280;11491;41.942;24.220;2023-03-25T04:37:27;89533.41;;;2.62;80.79
22649;BME280;11491;41.942;24.220;2023-03-25T04:39:58;89535.91;;;2.67;80.06
22649;BME280;11491;41.942;24.220;2023-03-25T04:42:24;89538.25;;;2.69;79.87
22649;BME280;11491;41.942;24.220;2023-03-25T04:44:58;89553.47;;;2.72;80.41
22649;BME280;11491;41.942;24.220;2023-03-25T04:47:25;89551.13;;;2.70;80.71
22649;BME280;11491;41.942;24.220;2023-03-25T04:49:53;89549.31;;;2.79;80.04
22649;BME280;11491;41.942;24.220;2023-03-25T04:52:19;89549.31;;;2.79;80.07
22649;BME280;11491;41.942;24.220;2023-03-25T04:54:46;89546.06;;;2.83;79.91
22649;BME280;11491;41.942;24.220;2023-03-25T04:57:13;89548.69;;;2.83;80.00
22649;BME280;11491;41.942;24.220;2023-03-25T04:59:40;89551.47;;;2.77;80.51
22649;BME280;11491;41.942;24.220;2023-03-25T05:02:10;89546.88;;;2.92;79.87
22649;BME280;11491;41.942;24.220;2023-03-25T05:04:38;89558.09;;;3.06;79.25
22649;BME280;11491;41.942;24.220;2023-03-25T05:07:07;89568.81;;;3.10;78.99
22649;BME280;11491;41.942;24.220;2023-03-25T05:09:34;89560.28;;;3.04;79.38
22649;BME280;11491;41.942;24.220;2023-03-25T05:12:01;89563.38;;;3.06;79.83
22649;BME280;11491;41.942;24.220;2023-03-25T05:14:27;89558.31;;;3.18;80.36
22649;BME280;11491;41.942;24.220;2023-03-25T05:16:54;89546.00;;;3.22;79.61
22649;BME280;11491;41.942;24.220;2023-03-25T05:19:25;89553.06;;;3.36;80.31
22649;BME280;11491;41.942;24.220;2023-03-25T05:21:53;89544.06;;;3.45;80.55
22649;BME280;11491;41.942;24.220;2023-03-25T05:24:21;89541.56;;;3.40;80.96
22649;BME280;11491;41.942;24.220;2023-03-25T05:26:48;89551.66;;;3.47;81.31
22649;BME280;11491;41.942;24.220;2023-03-25T05:29:15;89536.59;;;3.65;80.27
22649;BME280;11491;41.942;24.220;2023-03-25T05:31:42;89549.53;;;3.84;81.18
22649;BME280;11491;41.942;24.220;2023-03-25T05:34:10;89555.44;;;3.98;81.16
22649;BME280;11491;41.942;24.220;2023-03-25T05:36:40;89539.41;;;3.95;81.19
22649;BME280;11491;41.942;24.220;2023-03-25T05:39:07;89552.00;;;4.24;81.41
22649;BME280;11491;41.942;24.220;2023-03-25T05:41:35;89543.88;;;4.46;80.48
22649;BME280;11491;41.942;24.220;2023-03-25T05:44:04;89541.06;;;4.51;80.73
22649;BME280;11491;41.942;24.220;2023-03-25T05:46:32;89552.06;;;4.80;80.31
22649;BME280;11491;41.942;24.220;2023-03-25T05:48:59;89548.44;;;4.84;80.33
22649;BME280;11491;41.942;24.220;2023-03-25T05:51:27;89551.28;;;5.17;79.35
22649;BME280;11491;41.942;24.220;2023-03-25T05:53:59;89551.97;;;5.35;79.90
22649;BME280;11491;41.942;24.220;2023-03-25T05:56:25;89547.50;;;5.57;79.02
22649;BME280;11491;41.942;24.220;2023-03-25T05:58:52;89543.78;;;5.79;78.40
22649;BME280;11491;41.942;24.220;2023-03-25T06:01:21;89546.25;;;6.05;78.04
22649;BME280;11491;41.942;24.220;2023-03-25T06:03:48;89538.88;;;6.32;77.67
22649;BME280;11491;41.942;24.220;2023-03-25T06:06:15;89534.28;;;6.53;76.62
22649;BME280;11491;41.942;24.220;2023-03-25T06:08:44;89533.72;;;6.81;75.28
22649;BME280;11491;41.942;24.220;2023-03-25T06:11:12;89532.44;;;7.11;75.48
22649;BME280;11491;41.942;24.220;2023-03-25T06:13:39;89526.34;;;7.36;75.89
22649;BME280;11491;41.942;24.220;2023-03-25T06:16:14;89521.81;;;7.61;76.18
22649;BME280;11491;41.942;24.220;2023-03-25T06:18:42;89520.97;;;7.85;73.95
22649;BME280;11491;41.942;24.220;2023-03-25T06:21:09;89526.38;;;8.13;72.75
22649;BME280;11491;41.942;24.220;2023-03-25T06:23:36;89521.09;;;8.41;70.71
22649;BME280;11491;41.942;24.220;2023-03-25T06:26:04;89513.50;;;8.71;70.33
22649;BME280;11491;41.942;24.220;2023-03-25T06:28:32;89510.38;;;8.97;69.75
22649;BME280;11491;41.942;24.220;2023-03-25T06:30:59;89487.09;;;9.10;69.06
22649;BME280;11491;41.942;24.220;2023-03-25T06:33:27;89511.84;;;9.58;68.15
22649;BME280;11491;41.942;24.220;2023-03-25T06:35:54;89511.03;;;9.89;67.53
22649;BME280;11491;41.942;24.220;2023-03-25T06:38:21;89506.94;;;10.11;64.83
22649;BME280;11491;41.942;24.220;2023-03-25T06:40:48;89495.16;;;10.32;63.80
22649;BME280;11491;41.942;24.220;2023-03-25T06:43:16;89507.25;;;10.65;62.72
22649;BME280;11491;41.942;24.220;2023-03-25T06:45:44;89506.22;;;10.92;60.15
22649;BME280;11491;41.942;24.220;2023-03-25T06:48:11;89507.47;;;11.18;61.63
22649;BME280;11491;41.942;24.220;2023-03-25T06:50:37;89512.56;;;11.50;60.26
22649;BME280;11491;41.942;24.220;2023-03-25T06:53:04;89513.84;;;11.82;61.06
22649;BME280;11491;41.942;24.220;2023-03-25T06:55:31;89514.91;;;12.01;57.58
22649;BME280;11491;41.942;24.220;2023-03-25T06:57:57;89513.03;;;12.32;58.79
22649;BME280;11491;41.942;24.220;2023-03-25T07:00:24;89505.03;;;12.65;55.53
22649;BME280;11491;41.942;24.220;2023-03-25T07:02:54;89501.38;;;12.81;52.12
22649;BME280;11491;41.942;24.220;2023-03-25T07:05:22;89507.03;;;13.06;52.78
22649;BME280;11491;41.942;24.220;2023-03-25T07:07:49;89512.81;;;13.45;51.38
22649;BME280;11491;41.942;24.220;2023-03-25T07:10:16;89511.56;;;13.76;51.88
22649;BME280;11491;41.942;24.220;2023-03-25T07:12:43;89493.31;;;14.00;51.47
22649;BME280;11491;41.942;24.220;2023-03-25T07:15:10;89509.25;;;14.30;49.12
22649;BME280;11491;41.942;24.220;2023-03-25T07:17:36;89504.31;;;14.43;49.17
22649;BME280;11491;41.942;24.220;2023-03-25T07:20:06;89502.06;;;14.49;47.69
22649;BME280;11491;41.942;24.220;2023-03-25T07:22:33;89499.13;;;14.75;48.04
22649;BME280;11491;41.942;24.220;2023-03-25T07:25:00;89496.19;;;15.05;48.53
22649;BME280;11491;41.942;24.220;2023-03-25T07:27:27;89502.41;;;15.35;49.57
22649;BME280;11491;41.942;24.220;2023-03-25T07:29:54;89505.16;;;15.63;46.85
22649;BME280;11491;41.942;24.220;2023-03-25T07:32:21;89504.81;;;15.90;49.10
22649;BME280;11491;41.942;24.220;2023-03-25T07:34:47;89501.72;;;16.17;49.04
22649;BME280;11491;41.942;24.220;2023-03-25T07:37:16;89507.09;;;16.38;45.21
22649;BME280;11491;41.942;24.220;2023-03-25T07:39:42;89467.75;;;16.44;44.66
22649;BME280;11491;41.942;24.220;2023-03-25T07:42:09;89493.16;;;16.68;45.50
22649;BME280;11491;41.942;24.220;2023-03-25T07:44:36;89504.69;;;16.76;46.25
22649;BME280;11491;41.942;24.220;2023-03-25T07:47:03;89492.38;;;16.82;46.72
22649;BME280;11491;41.942;24.220;2023-03-25T07:49:30;89486.19;;;16.89;45.22
22649;BME280;11491;41.942;24.220;2023-03-25T07:51:56;89496.13;;;17.10;45.54
22649;BME280;11491;41.942;24.220;2023-03-25T07:54:24;89491.44;;;17.25;44.85
22649;BME280;11491;41.942;24.220;2023-03-25T07:56:52;89490.56;;;17.42;43.93
22649;BME280;11491;41.942;24.220;2023-03-25T07:59:19;89491.28;;;17.57;43.41
22649;BME280;11491;41.942;24.220;2023-03-25T08:01:46;89490.38;;;17.81;42.00
22649;BME280;11491;41.942;24.220;2023-03-25T08:04:13;89494.09;;;17.98;42.83
22649;BME280;11491;41.942;24.220;2023-03-25T08:06:40;89494.00;;;18.13;42.35
22649;BME280;11491;41.942;24.220;2023-03-25T08:09:06;89478.53;;;18.13;40.84
22649;BME280;11491;41.942;24.220;2023-03-25T08:11:35;89490.38;;;18.30;38.94
22649;BME280;11491;41.942;24.220;2023-03-25T08:14:01;89494.56;;;18.35;41.21
22649;BME280;11491;41.942;24.220;2023-03-25T08:16:28;89498.25;;;18.55;40.83
22649;BME280;11491;41.942;24.220;2023-03-25T08:18:55;89491.97;;;18.65;40.11
22649;BME280;11491;41.942;24.220;2023-03-25T08:21:22;89488.31;;;18.83;38.39
22649;BME280;11491;41.942;24.220;2023-03-25T08:23:52;89488.69;;;18.85;38.63
22649;BME280;11491;41.942;24.220;2023-03-25T08:26:23;89487.28;;;18.69;37.30
22649;BME280;11491;41.942;24.220;2023-03-25T08:28:51;89491.63;;;18.18;37.03
22649;BME280;11491;41.942;24.220;2023-03-25T08:31:19;89485.47;;;18.14;36.96
22649;BME280;11491;41.942;24.220;2023-03-25T08:33:46;89485.97;;;17.98;37.02
22649;BME280;11491;41.942;24.220;2023-03-25T08:36:13;89485.31;;;18.32;37.02
22649;BME280;11491;41.942;24.220;2023-03-25T08:38:44;89483.78;;;18.76;38.79
22649;BME280;11491;41.942;24.220;2023-03-25T08:41:11;89487.56;;;19.17;37.40
22649;BME280;11491;41.942;24.220;2023-03-25T08:43:37;89489.66;;;19.36;37.37
22649;BME280;11491;41.942;24.220;2023-03-25T08:46:06;89474.03;;;19.47;36.83
22649;BME280;11491;41.942;24.220;2023-03-25T08:48:32;89460.69;;;19.60;35.89
22649;BME280;11491;41.942;24.220;2023-03-25T08:50:59;89461.78;;;19.93;35.05
22649;BME280;11491;41.942;24.220;2023-03-25T08:53:26;89461.09;;;20.36;36.66
22649;BME280;11491;41.942;24.220;2023-03-25T08:55:54;89457.53;;;20.86;36.62
22649;BME280;11491;41.942;24.220;2023-03-25T08:58:22;89454.91;;;21.23;35.00
22649;BME280;11491;41.942;24.220;2023-03-25T09:00:49;89455.75;;;21.20;33.25
22649;BME280;11491;41.942;24.220;2023-03-25T09:03:20;89445.50;;;21.27;32.90
22649;BME280;11491;41.942;24.220;2023-03-25T09:05:47;89453.28;;;21.65;32.59
22649;BME280;11491;41.942;24.220;2023-03-25T09:08:14;89441.38;;;21.76;33.71
22649;BME280;11491;41.942;24.220;2023-03-25T09:10:41;89456.91;;;22.11;32.79
22649;BME280;11491;41.942;24.220;2023-03-25T09:13:07;89454.50;;;22.13;33.39
22649;BME280;11491;41.942;24.220;2023-03-25T09:15:34;89453.63;;;22.20;33.02
22649;BME280;11491;41.942;24.220;2023-03-25T09:18:01;89443.31;;;22.28;31.75
22649;BME280;11491;41.942;24.220;2023-03-25T09:20:30;89453.59;;;22.53;32.37
22649;BME280;11491;41.942;24.220;2023-03-25T09:22:58;89451.22;;;22.55;32.76
22649;BME280;11491;41.942;24.220;2023-03-25T09:25:25;89441.81;;;22.27;33.32
22649;BME280;11491;41.942;24.220;2023-03-25T09:27:51;89438.53;;;21.99;32.80
22649;BME280;11491;41.942;24.220;2023-03-25T09:30:18;89440.94;;;22.30;33.36
22649;BME280;11491;41.942;24.220;2023-03-25T09:32:45;89434.31;;;22.47;33.35
22649;BME280;11491;41.942;24.220;2023-03-25T09:35:12;89444.16;;;22.57;33.88
22649;BME280;11491;41.942;24.220;2023-03-25T09:37:40;89422.69;;;22.76;32.12
22649;BME280;11491;41.942;24.220;2023-03-25T09:40:09;89411.72;;;23.09;31.31
22649;BME280;11491;41.942;24.220;2023-03-25T09:42:47;89394.69;;;23.05;32.47
22649;BME280;11491;41.942;24.220;2023-03-25T09:45:27;89414.34;;;23.25;31.95
22649;BME280;11491;41.942;24.220;2023-03-25T09:48:00;89420.34;;;22.91;31.32
22649;BME280;11491;41.942;24.220;2023-03-25T09:50:29;89421.47;;;22.77;31.72
22649;BME280;11491;41.942;24.220;2023-03-25T09:53:04;89415.75;;;22.58;32.31
22649;BME280;11491;41.942;24.220;2023-03-25T09:55:34;89405.19;;;23.19;32.26
22649;BME280;11491;41.942;24.220;2023-03-25T09:58:23;89402.88;;;23.72;30.43
22649;BME280;11491;41.942;24.220;2023-03-25T10:00:58;89401.16;;;24.04;30.85
22649;BME280;11491;41.942;24.220;2023-03-25T10:03:30;89403.53;;;24.53;29.36
22649;BME280;11491;41.942;24.220;2023-03-25T10:06:12;89402.41;;;24.63;28.85
22649;BME280;11491;41.942;24.220;2023-03-25T10:08:54;89393.41;;;24.76;29.61
22649;BME280;11491;41.942;24.220;2023-03-25T10:11:32;89390.22;;;24.99;29.42
22649;BME280;11491;41.942;24.220;2023-03-25T10:14:06;89391.22;;;24.70;29.46
22649;BME280;11491;41.942;24.220;2023-03-25T10:16:37;89375.44;;;24.27;30.31
22649;BME280;11491;41.942;24.220;2023-03-25T10:19:18;89374.28;;;23.64;29.82
22649;BME280;11491;41.942;24.220;2023-03-25T10:21:52;89381.56;;;23.41;31.74
22649;BME280;11491;41.942;24.220;2023-03-25T10:24:24;89378.34;;;23.05;31.85
22649;BME280;11491;41.942;24.220;2023-03-25T10:26:55;89375.72;;;22.55;32.82
22649;BME280;11491;41.942;24.220;2023-03-25T10:29:28;89369.50;;;22.09;32.89
22649;BME280;11491;41.942;24.220;2023-03-25T10:31:59;89369.38;;;21.27;33.96
22649;BME280;11491;41.942;24.220;2023-03-25T10:34:34;89366.22;;;20.93;34.36
22649;BME280;11491;41.942;24.220;2023-03-25T10:37:06;89364.25;;;21.13;34.15
22649;BME280;11491;41.942;24.220;2023-03-25T10:39:40;89367.38;;;21.84;33.42
22649;BME280;11491;41.942;24.220;2023-03-25T10:42:19;89368.66;;;22.29;33.16
22649;BME280;11491;41.942;24.220;2023-03-25T10:44:49;89365.63;;;22.56;32.82
22649;BME280;11491;41.942;24.220;2023-03-25T10:47:18;89354.41;;;22.96;32.44
22649;BME280;11491;41.942;24.220;2023-03-25T10:49:47;89354.88;;;22.78;31.97
22649;BME280;11491;41.942;24.220;2023-03-25T10:52:16;89352.59;;;22.47;31.71
22649;BME280;11491;41.942;24.220;2023-03-25T10:54:47;89359.03;;;22.24;31.88
22649;BME280;11491;41.942;24.220;2023-03-25T10:57:18;89354.59;;;21.65;31.96
22649;BME280;11491;41.942;24.220;2023-03-25T10:59:55;89351.53;;;21.96;33.89
22649;BME280;11491;41.942;24.220;2023-03-25T11:02:26;89360.31;;;21.87;32.35
22649;BME280;11491;41.942;24.220;2023-03-25T11:04:56;89342.59;;;21.79;34.01
22649;BME280;11491;41.942;24.220;2023-03-25T11:07:28;89350.59;;;22.02;33.52
22649;BME280;11491;41.942;24.220;2023-03-25T11:10:10;89341.06;;;22.10;33.56
22649;BME280;11491;41.942;24.220;2023-03-25T11:12:40;89338.69;;;22.12;31.81
22649;BME280;11491;41.942;24.220;2023-03-25T11:15:15;89331.09;;;22.66;33.15
22649;BME280;11491;41.942;24.220;2023-03-25T11:17:43;89328.44;;;23.20;32.62
22649;BME280;11491;41.942;24.220;2023-03-25T11:20:18;89313.81;;;23.27;31.74
22649;BME280;11491;41.942;24.220;2023-03-25T11:22:47;89320.69;;;23.57;31.54
22649;BME280;11491;41.942;24.220;2023-03-25T11:25:19;89323.66;;;23.63;32.07
22649;BME280;11491;41.942;24.220;2023-03-25T11:27:52;89315.78;;;23.39;30.47
22649;BME280;11491;41.942;24.220;2023-03-25T11:30:22;89312.31;;;23.52;31.37
22649;BME280;11491;41.942;24.220;2023-03-25T11:32:57;89304.66;;;23.72;31.45
22649;BME280;11491;41.942;24.220;2023-03-25T11:35:26;89309.78;;;23.96;31.54
22649;BME280;11491;41.942;24.220;2023-03-25T11:37:55;89307.00;;;24.21;31.20
22649;BME280;11491;41.942;24.220;2023-03-25T11:40:24;89303.06;;;24.22;30.26
22649;BME280;11491;41.942;24.220;2023-03-25T11:42:53;89297.34;;;24.29;30.17
22649;BME280;11491;41.942;24.220;2023-03-25T11:45:23;89297.66;;;23.97;30.63
22649;BME280;11491;41.942;24.220;2023-03-25T11:47:52;89294.84;;;23.62;30.15
22649;BME280;11491;41.942;24.220;2023-03-25T11:50:24;89295.06;;;23.29;30.75
22649;BME280;11491;41.942;24.220;2023-03-25T11:52:54;89288.13;;;22.86;31.22
22649;BME280;11491;41.942;24.220;2023-03-25T11:55:25;89289.50;;;22.78;33.31
22649;BME280;11491;41.942;24.220;2023-03-25T11:57:54;89276.31;;;23.06;31.69
22649;BME280;11491;41.942;24.220;2023-03-25T12:00:36;89264.66;;;23.31;31.04
22649;BME280;11491;41.942;24.220;2023-03-25T12:03:05;89269.75;;;23.67;31.33
22649;BME280;11491;41.942;24.220;2023-03-25T12:05:43;89262.94;;;24.10;31.28
22649;BME280;11491;41.942;24.220;2023-03-25T12:08:21;89263.63;;;24.23;30.15
22649;BME280;11491;41.942;24.220;2023-03-25T12:10:53;89259.97;;;24.52;28.67
22649;BME280;11491;41.942;24.220;2023-03-25T12:13:30;89260.19;;;24.45;29.50
22649;BME280;11491;41.942;24.220;2023-03-25T12:16:08;89253.59;;;24.55;29.11
22649;BME280;11491;41.942;24.220;2023-03-25T12:18:47;89242.78;;;24.74;29.07
22649;BME280;11491;41.942;24.220;2023-03-25T12:21:23;89240.13;;;24.61;29.52
22649;BME280;11491;41.942;24.220;2023-03-25T12:24:02;89238.81;;;24.31;30.18
22649;BME280;11491;41.942;24.220;2023-03-25T12:26:36;89233.50;;;24.49;29.28
22649;BME280;11491;41.942;24.220;2023-03-25T12:29:21;89232.22;;;24.41;28.88
22649;BME280;11491;41.942;24.220;2023-03-25T12:32:01;89236.66;;;24.25;28.74
22649;BME280;11491;41.942;24.220;2023-03-25T12:34:39;89234.00;;;24.00;29.27
22649;BME280;11491;41.942;24.220;2023-03-25T12:37:19;89222.19;;;23.68;29.38
22649;BME280;11491;41.942;24.220;2023-03-25T12:39:57;89229.84;;;23.73;30.83
22649;BME280;11491;41.942;24.220;2023-03-25T12:42:38;89224.44;;;23.70;31.25
22649;BME280;11491;41.942;24.220;2023-03-25T12:45:33;89218.38;;;23.53;30.13
22649;BME280;11491;41.942;24.220;2023-03-25T12:48:09;89202.66;;;22.93;30.63
22649;BME280;11491;41.942;24.220;2023-03-25T12:50:52;89209.94;;;22.57;30.48
22649;BME280;11491;41.942;24.220;2023-03-25T12:53:35;89177.78;;;22.40;32.46
22649;BME280;11491;41.942;24.220;2023-03-25T12:56:12;89202.59;;;22.96;29.57
22649;BME280;11491;41.942;24.220;2023-03-25T12:59:05;89200.84;;;23.03;30.23
22649;BME280;11491;41.942;24.220;2023-03-25T13:01:46;89195.84;;;23.14;30.93
22649;BME280;11491;41.942;24.220;2023-03-25T13:04:33;89197.97;;;23.44;30.90
22649;BME280;11491;41.942;24.220;2023-03-25T13:07:05;89197.34;;;23.40;30.34
22649;BME280;11491;41.942;24.220;2023-03-25T13:09:35;89194.06;;;23.46;30.86
22649;BME280;11491;41.942;24.220;2023-03-25T13:12:08;89188.06;;;23.98;30.00
22649;BME280;11491;41.942;24.220;2023-03-25T13:14:42;89196.13;;;24.02;29.05
22649;BME280;11491;41.942;24.220;2023-03-25T13:17:13;89188.88;;;23.86;30.44
22649;BME280;11491;41.942;24.220;2023-03-25T13:19:43;89196.69;;;23.36;29.65
22649;BME280;11491;41.942;24.220;2023-03-25T13:22:16;89190.59;;;22.81;29.53